Time;durP1;ratioP1;P1;durP2;ratioP2;P2;SDS_P1;SDS_P2;PMS_P1;PMS_P2;Temp;Humidity;BMP_temperature;BMP_pressure;BME280_temperature;BME280_humidity;BME280_pressure;Samples;Min_cycle;Max_cycle;Signal;HPM_P1;HPM_P2
2021/03/22 00:01:14;;;;;;;22.20;10.60;;;;;;;0.49;78.00;96707.91;5006375;28;20532;-71
2021/03/22 00:03:41;;;;;;;22.15;10.85;;;;;;;0.64;77.76;96706.03;4993648;28;20136;-71
2021/03/22 00:06:09;;;;;;;21.00;11.32;;;;;;;0.39;78.86;96715.41;5009065;28;20049;-71
2021/03/22 00:08:35;;;;;;;24.27;13.00;;;;;;;0.37;79.47;96709.56;5010533;28;20449;-71
2021/03/22 00:11:02;;;;;;;17.73;10.07;;;;;;;0.53;77.91;96715.28;5009712;28;20061;-71
2021/03/22 00:13:28;;;;;;;18.42;10.30;;;;;;;0.51;78.04;96711.16;5009174;28;20052;-71
2021/03/22 00:16:02;;;;;;;20.50;10.05;;;;;;;0.52;77.94;96700.00;5012061;28;20111;-71
2021/03/22 00:18:32;;;;;;;20.33;10.75;;;;;;;0.55;77.94;96707.47;4994491;28;20490;-71
2021/03/22 00:20:58;;;;;;;22.00;10.35;;;;;;;0.53;78.04;96702.47;4994733;28;20494;-71
2021/03/22 00:23:25;;;;;;;23.17;11.60;;;;;;;0.20;80.55;96711.50;5007277;28;20096;-72
2021/03/22 00:25:51;;;;;;;18.13;10.30;;;;;;;0.29;79.38;96704.94;5008987;28;20299;-71
2021/03/22 00:28:20;;;;;;;23.58;11.25;;;;;;;0.45;79.36;96717.53;4995527;28;20045;-76
2021/03/22 00:30:47;;;;;;;20.40;10.98;;;;;;;0.48;78.50;96706.25;5008355;28;20048;-72
2021/03/22 00:33:15;;;;;;;20.58;11.23;;;;;;;0.51;78.60;96701.75;5010999;28;20077;-71
2021/03/22 00:35:41;;;;;;;;;;;;;;;0.43;80.12;96704.03;5004048;28;20418;-72
2021/03/22 00:38:08;;;;;;;20.92;9.93;;;;;;;0.38;78.90;96700.94;5005490;28;19960;-72
2021/03/22 00:40:39;;;;;;;17.45;10.07;;;;;;;0.54;77.93;96701.53;5010736;28;20046;-71
2021/03/22 00:43:05;;;;;;;19.60;10.45;;;;;;;0.47;79.63;96702.88;5005386;28;20147;-71
2021/03/22 00:45:54;;;;;;;22.13;10.93;;;;;;;0.54;78.11;96695.59;5007698;28;20034;-71
2021/03/22 00:48:24;;;;;;;23.20;11.50;;;;;;;0.45;78.97;96697.06;4991421;28;20038;-71
2021/03/22 00:50:50;;;;;;;17.55;10.05;;;;;;;0.24;79.91;96683.16;5009550;28;20058;-71
2021/03/22 00:53:17;;;;;;;23.55;10.18;;;;;;;0.22;80.30;96690.94;4973502;28;20314;-72
2021/03/22 00:55:44;;;;;;;23.00;10.90;;;;;;;0.40;78.27;96689.69;5012200;28;20100;-71
2021/03/22 00:58:11;;;;;;;21.25;9.75;;;;;;;0.53;78.24;96692.22;5011953;28;20046;-71
2021/03/22 01:00:42;;;;;;;18.43;11.27;;;;;;;0.34;80.33;96694.38;5010283;28;20125;-72
2021/03/22 01:03:13;;;;;;;21.83;11.45;;;;;;;0.19;81.29;96702.22;5008977;28;20040;-72
2021/03/22 01:05:40;;;;;;;19.98;10.40;;;;;;;0.33;79.40;96695.31;5005956;28;20077;-71
2021/03/22 01:08:07;;;;;;;26.27;10.27;;;;;;;0.47;78.76;96690.09;4990250;28;20046;-72
2021/03/22 01:10:44;;;;;;;18.10;10.30;;;;;;;0.41;80.18;96690.50;5008355;28;20058;-71
2021/03/22 01:13:17;;;;;;;19.40;10.50;;;;;;;0.34;79.52;96682.44;4991439;28;20053;-71
2021/03/22 01:15:43;;;;;;;21.45;10.80;;;;;;;0.39;79.37;96682.09;5006753;28;20061;-71
2021/03/22 01:18:11;;;;;;;22.08;11.10;;;;;;;0.23;80.55;96677.19;5003348;28;20442;-71
2021/03/22 01:20:42;;;;;;;20.05;10.57;;;;;;;0.23;80.73;96676.38;5008989;28;20453;-72
2021/03/22 01:23:08;;;;;;;21.75;10.30;;;;;;;0.18;79.82;96666.47;5006756;28;20669;-72
2021/03/22 01:25:34;;;;;;;25.60;10.77;;;;;;;0.32;79.97;96668.91;4991273;28;20056;-72
2021/03/22 01:28:01;;;;;;;19.55;10.20;;;;;;;0.33;79.63;96656.91;5009529;28;20510;-71
2021/03/22 01:30:49;;;;;;;28.13;9.93;;;;;;;0.45;79.34;96661.19;5009338;28;20057;-71
2021/03/22 01:33:22;;;;;;;23.10;9.77;;;;;;;0.49;79.07;96659.25;4994208;28;20137;-71
2021/03/22 01:35:48;;;;;;;21.13;9.70;;;;;;;0.31;79.79;96651.88;4992790;28;20536;-71
2021/03/22 01:38:14;;;;;;;22.80;9.90;;;;;;;0.42;78.98;96656.28;5015009;28;20050;-71
2021/03/22 01:40:54;;;;;;;23.40;9.82;;;;;;;0.45;79.26;96650.97;5008885;28;20137;-72
2021/03/22 01:43:37;;;;;;;30.15;9.20;;;;;;;0.48;78.30;96655.84;5011855;28;20049;-71
2021/03/22 01:46:04;;;;;;;25.23;10.32;;;;;;;0.30;79.59;96642.59;5007485;28;20054;-71
2021/03/22 01:48:31;;;;;;;22.85;10.07;;;;;;;0.05;81.11;96653.69;5008051;28;20042;-71
2021/03/22 01:50:58;;;;;;;23.58;9.20;;;;;;;0.44;78.43;96654.41;5011019;28;21142;-72
2021/03/22 01:53:25;;;;;;;;;;;;;;;0.38;79.24;96654.84;5009345;28;20050;-71
2021/03/22 01:56:08;;;;;;;23.98;9.88;;;;;;;0.37;79.09;96659.16;5011412;28;20258;-72
2021/03/22 01:58:35;;;;;;;22.30;10.27;;;;;;;0.21;80.32;96658.56;4978491;28;20045;-71
2021/03/22 02:01:02;;;;;;;28.55;10.63;;;;;;;0.15;81.16;96664.94;5011306;28;20398;-72
2021/03/22 02:03:28;;;;;;;23.50;10.27;;;;;;;0.11;81.01;96668.63;4992531;28;20058;-72
2021/03/22 02:05:54;;;;;;;20.10;9.93;;;;;;;0.17;81.32;96678.44;4976957;28;20576;-71
2021/03/22 02:08:30;;;;;;;22.85;9.70;;;;;;;0.36;79.36;96683.13;5009584;28;20040;-71
2021/03/22 02:10:57;;;;;;;28.17;10.50;;;;;;;0.22;80.67;96685.00;5008206;28;20574;-71
2021/03/22 02:13:32;;;;;;;20.80;9.57;;;;;;;0.33;79.38;96673.09;5009044;28;20082;-71
2021/03/22 02:16:10;;;;;;;24.63;10.50;;;;;;;0.39;79.55;96676.97;5008075;28;20140;-72
2021/03/22 02:18:55;;;;;;;24.95;10.05;;;;;;;0.36;79.47;96662.66;5009231;28;20052;-71
2021/03/22 02:21:49;;;;;;;27.65;10.60;;;;;;;0.32;80.60;96676.59;5011233;28;20050;-74
2021/03/22 02:24:53;;;;;;;31.27;11.25;;;;;;;0.31;79.95;96674.94;5009036;28;20046;-71
2021/03/22 02:27:42;;;;;;;24.50;9.50;;;;;;;0.29;79.19;96674.22;5008917;28;20046;-72
2021/03/22 02:30:48;;;;;;;23.25;8.98;;;;;;;0.52;78.91;96685.44;5009411;28;21026;-72
2021/03/22 02:33:48;;;;;;;22.35;9.70;;;;;;;0.55;78.76;96687.81;5010773;28;20055;-72
2021/03/22 02:36:53;;;;;;;22.17;8.20;;;;;;;0.55;78.03;96695.50;4983588;28;20525;-73
2021/03/22 02:39:19;;;;;;;25.90;10.52;;;;;;;0.51;79.16;96694.06;4977663;28;20145;-72
2021/03/22 02:41:56;;;;;;;25.58;10.23;;;;;;;0.41;79.25;96682.81;5010688;28;20037;-72
2021/03/22 02:44:28;;;;;;;26.20;9.73;;;;;;;0.54;78.74;96695.59;5010574;28;20109;-72
2021/03/22 02:47:03;;;;;;;21.63;10.48;;;;;;;0.38;80.77;96700.94;4991222;28;20464;-72
2021/03/22 02:49:34;;;;;;;21.58;9.02;;;;;;;0.54;78.69;96691.28;4978046;28;20239;-71
2021/03/22 02:52:25;;;;;;;24.80;9.98;;;;;;;0.52;79.27;96703.38;5009345;28;20125;-72
2021/03/22 02:55:06;;;;;;;25.83;9.77;;;;;;;0.54;78.82;96706.66;5008988;28;20050;-72
2021/03/22 02:57:41;;;;;;;24.80;9.68;;;;;;;0.59;78.40;96702.06;5008858;28;20070;-71
2021/03/22 03:00:28;;;;;;;21.13;9.32;;;;;;;0.54;79.42;96711.78;5011396;28;20080;-72
2021/03/22 03:03:04;;;;;;;23.02;10.02;;;;;;;0.62;79.12;96707.91;5009693;28;20038;-72
2021/03/22 03:05:32;;;;;;;28.35;10.93;;;;;;;0.43;79.89;96713.47;5007261;28;20502;-71
2021/03/22 03:08:01;;;;;;;27.42;10.27;;;;;;;0.38;80.94;96724.00;4991520;28;20050;-72
2021/03/22 03:10:27;;;;;;;21.98;9.98;;;;;;;0.42;79.75;96722.84;5006660;28;20120;-72
2021/03/22 03:12:54;;;;;;;24.33;9.82;;;;;;;0.41;80.35;96726.34;4991985;28;20482;-71
2021/03/22 03:15:21;;;;;;;24.92;9.02;;;;;;;0.44;79.44;96727.88;5009457;28;20037;-71
2021/03/22 03:17:49;;;;;;;22.02;9.10;;;;;;;0.49;78.83;96729.22;4991626;28;20046;-71
2021/03/22 03:20:20;;;;;;;27.23;10.00;;;;;;;0.56;79.39;96721.94;5007581;28;20038;-72
2021/03/22 03:22:46;;;;;;;28.65;9.13;;;;;;;0.62;78.72;96729.19;5004855;28;20097;-72
2021/03/22 03:25:14;;;;;;;24.92;9.38;;;;;;;0.44;78.68;96727.88;5003316;28;20038;-72
2021/03/22 03:27:40;;;;;;;;;;;;;;;0.51;78.72;96731.66;5005163;28;20064;-71
2021/03/22 03:30:12;;;;;;;25.40;8.98;;;;;;;0.48;79.03;96716.50;5004790;28;20361;-73
2021/03/22 03:32:38;;;;;;;29.63;9.70;;;;;;;0.35;79.50;96721.66;5005407;28;20743;-72
2021/03/22 03:35:08;;;;;;;35.42;11.00;;;;;;;0.46;79.82;96731.97;4991522;28;20042;-72
2021/03/22 03:37:34;;;;;;;28.55;9.43;;;;;;;0.44;79.09;96725.31;5006322;28;20041;-71
2021/03/22 03:40:05;;;;;;;26.58;8.43;;;;;;;0.57;78.57;96715.88;4992950;28;20038;-72
2021/03/22 03:42:30;;;;;;;23.17;8.35;;;;;;;0.59;78.72;96727.69;4992028;28;20144;-72
2021/03/22 03:44:56;;;;;;;22.98;8.68;;;;;;;0.57;78.33;96711.59;5005518;28;20046;-72
2021/03/22 03:47:23;;;;;;;26.38;8.68;;;;;;;0.48;79.11;96717.31;5006219;28;20132;-71
2021/03/22 03:49:49;;;;;;;24.38;9.25;;;;;;;0.53;78.36;96725.53;5008695;28;20385;-71
2021/03/22 03:52:15;;;;;;;35.28;9.15;;;;;;;0.48;79.66;96719.88;5000965;28;20039;-72
2021/03/22 03:54:41;;;;;;;27.77;8.23;;;;;;;0.53;78.66;96720.41;5007476;28;20128;-71
2021/03/22 03:57:08;;;;;;;34.85;9.90;;;;;;;0.45;79.26;96714.97;5005698;28;20060;-72
2021/03/22 03:59:34;;;;;;;27.33;8.80;;;;;;;0.39;79.54;96717.97;5005888;28;20398;-72
2021/03/22 04:02:00;;;;;;;29.02;8.27;;;;;;;0.38;79.66;96708.63;4990722;28;20537;-72
2021/03/22 04:04:26;;;;;;;26.10;9.18;;;;;;;0.24;79.38;96703.63;5007144;28;20041;-72
2021/03/22 04:06:52;;;;;;;31.33;8.50;;;;;;;0.46;79.54;96715.78;5006082;28;20149;-71
2021/03/22 04:09:19;;;;;;;27.80;8.93;;;;;;;0.30;80.10;96708.34;5002806;28;20116;-72
2021/03/22 04:11:47;;;;;;;28.55;7.65;;;;;;;0.25;79.17;96723.19;5006919;28;20057;-72
2021/03/22 04:14:25;;;;;;;20.98;7.63;;;;;;;0.35;79.35;96719.09;5002589;28;20073;-72
2021/03/22 04:16:52;;;;;;;27.92;8.50;;;;;;;0.34;78.91;96718.28;5005657;28;20046;-71
2021/03/22 04:19:19;;;;;;;23.35;7.78;;;;;;;0.22;79.94;96720.84;4990501;28;20047;-71
2021/03/22 04:21:46;;;;;;;29.67;8.32;;;;;;;0.36;79.29;96720.72;5007024;28;20130;-72
2021/03/22 04:24:13;;;;;;;24.85;8.05;;;;;;;0.34;79.40;96720.00;5008964;28;20453;-72
2021/03/22 04:26:40;;;;;;;;;;;;;;;0.20;80.24;96723.50;4992678;28;20042;-71
2021/03/22 04:29:07;;;;;;;26.70;8.25;;;;;;;0.34;79.58;96728.53;5005994;28;19930;-72
2021/03/22 04:31:34;;;;;;;24.92;8.63;;;;;;;0.33;78.94;96723.50;5009064;28;20120;-71
2021/03/22 04:34:01;;;;;;;22.00;7.73;;;;;;;0.27;79.84;96729.84;4988911;28;20045;-72
2021/03/22 04:36:32;;;;;;;27.38;7.55;;;;;;;0.24;79.80;96729.25;5007756;28;20055;-71
2021/03/22 04:38:58;;;;;;;27.52;8.02;;;;;;;0.13;80.30;96720.53;4992250;28;20044;-71
2021/03/22 04:41:24;;;;;;;24.05;8.02;;;;;;;0.30;79.34;96728.84;4990068;28;20164;-72
2021/03/22 04:43:52;;;;;;;20.13;7.32;;;;;;;0.40;79.66;96732.38;5007912;28;20038;-71
2021/03/22 04:46:19;;;;;;;29.75;8.00;;;;;;;0.36;79.19;96734.34;5004611;28;20619;-72
2021/03/22 04:48:57;;;;;;;25.63;8.50;;;;;;;0.33;79.68;96733.75;5009156;28;20041;-72
2021/03/22 04:51:24;;;;;;;26.13;6.82;;;;;;;0.30;79.45;96733.97;5007365;28;20069;-72
2021/03/22 04:53:50;;;;;;;30.67;7.80;;;;;;;0.25;79.03;96731.69;5008941;28;20046;-72
2021/03/22 04:56:18;;;;;;;;;;;;;;;0.25;80.23;96741.13;5006574;28;20053;-72
2021/03/22 04:58:44;;;;;;;25.88;7.55;;;;;;;0.35;80.46;96737.81;5008768;28;19930;-72
2021/03/22 05:01:10;;;;;;;30.98;7.60;;;;;;;0.37;79.78;96742.84;5005611;28;20070;-71
2021/03/22 05:03:37;;;;;;;25.25;7.18;;;;;;;0.28;80.31;96735.81;4991059;28;20049;-71
2021/03/22 05:06:04;;;;;;;30.88;8.35;;;;;;;0.33;79.79;96736.28;5005527;28;20398;-71
2021/03/22 05:08:30;;;;;;;27.58;7.32;;;;;;;0.23;80.32;96722.47;4992492;28;20398;-71
2021/03/22 05:11:00;;;;;;;32.10;8.32;;;;;;;0.26;80.54;96742.75;5008153;28;20034;-72
2021/03/22 05:13:27;;;;;;;32.67;7.22;;;;;;;0.41;79.72;96744.28;4990336;28;20485;-71
2021/03/22 05:15:54;;;;;;;34.20;8.07;;;;;;;0.41;79.29;96746.84;5008431;28;20038;-71
2021/03/22 05:18:22;;;;;;;;;;;;;;;0.37;79.75;96750.53;5006381;28;20053;-70
2021/03/22 05:21:03;;;;;;;23.83;6.97;;;;;;;0.43;79.46;96747.56;5002887;28;20021;-71
2021/03/22 05:23:30;;;;;;;30.23;7.28;;;;;;;0.46;79.37;96754.22;5007603;28;20122;-72
2021/03/22 05:25:58;;;;;;;25.75;7.60;;;;;;;0.39;79.48;96753.81;5006255;28;20054;-72
2021/03/22 05:28:26;;;;;;;26.08;7.25;;;;;;;0.41;79.43;96762.22;5008902;28;20399;-71
2021/03/22 05:30:53;;;;;;;35.03;8.43;;;;;;;0.33;79.34;96747.34;5006833;28;20053;-72
2021/03/22 05:33:21;;;;;;;26.80;8.50;;;;;;;0.39;79.46;96754.63;5004201;28;20144;-71
2021/03/22 05:35:50;;;;;;;31.98;7.78;;;;;;;0.44;78.81;96751.75;5006973;28;20069;-72
2021/03/22 05:38:17;;;;;;;30.40;8.07;;;;;;;0.29;79.93;96753.59;5011427;28;20038;-71
2021/03/22 05:40:48;;;;;;;37.97;8.27;;;;;;;0.48;79.80;96753.19;5008553;28;20521;-72
2021/03/22 05:43:20;;;;;;;23.88;6.95;;;;;;;0.46;79.04;96752.47;5011332;28;20062;-71
2021/03/22 05:45:46;;;;;;;34.08;7.15;;;;;;;0.50;79.07;96760.78;4994083;28;20056;-72
2021/03/22 05:48:47;;;;;;;30.88;7.25;;;;;;;0.45;79.44;96761.09;4991836;28;20064;-73
2021/03/22 05:51:32;;;;;;;32.08;6.90;;;;;;;0.43;78.90;96775.72;5011067;28;20064;-74
2021/03/22 05:54:10;;;;;;;29.15;6.20;;;;;;;0.56;77.66;96771.41;5009777;28;20045;-74
2021/03/22 05:57:14;;;;;;;30.55;7.43;;;;;;;0.67;77.82;96772.44;5009317;28;20060;-73
2021/03/22 05:59:45;;;;;;;32.63;6.57;;;;;;;0.65;77.30;96774.28;5008520;28;20096;-72
2021/03/22 06:02:26;;;;;;;24.38;5.93;;;;;;;0.80;77.67;96794.56;5008992;28;20125;-73
2021/03/22 06:04:54;;;;;;;30.58;6.95;;;;;;;0.87;77.37;96779.59;5011730;28;20042;-71
2021/03/22 06:07:22;;;;;;;;;;;;;;;1.06;76.03;96793.66;4996538;28;20050;-71
2021/03/22 06:09:57;;;;;;;29.83;7.18;;;;;;;1.10;76.47;96797.66;4995242;28;19935;-70
2021/03/22 06:12:36;;;;;;;29.73;6.13;;;;;;;1.19;75.88;96789.34;5008261;28;20085;-70
2021/03/22 06:15:21;;;;;;;31.83;6.43;;;;;;;1.23;75.47;96790.78;5007866;28;20068;-73
2021/03/22 06:18:01;;;;;;;23.52;6.40;;;;;;;1.15;75.95;96795.63;4994960;28;20052;-74
2021/03/22 06:20:34;;;;;;;26.77;6.22;;;;;;;1.21;76.00;96787.50;5000547;28;20114;-74
2021/03/22 06:23:12;;;;;;;26.90;6.13;;;;;;;1.38;76.65;96801.69;4994627;28;20041;-73
2021/03/22 06:25:38;;;;;;;29.65;6.43;;;;;;;1.30;76.80;96804.78;4998495;28;20046;-73
2021/03/22 06:28:19;;;;;;;34.10;7.95;;;;;;;1.17;76.34;96804.03;5010233;28;20541;-71
2021/03/22 06:31:09;;;;;;;23.98;6.03;;;;;;;1.43;76.45;96810.69;5005818;28;20096;-70
2021/03/22 06:33:42;;;;;;;25.20;6.95;;;;;;;1.46;75.59;96819.94;5006335;28;20509;-69
2021/03/22 06:36:11;;;;;;;32.38;6.40;;;;;;;1.19;76.70;96820.94;5011233;28;20124;-70
2021/03/22 06:38:37;;;;;;;31.50;6.93;;;;;;;1.39;76.54;96827.22;5010282;28;20029;-71
2021/03/22 06:41:38;;;;;;;29.55;6.45;;;;;;;1.75;74.32;96822.97;5008252;28;20053;-72
2021/03/22 06:44:10;;;;;;;33.83;7.05;;;;;;;1.70;74.96;96832.78;5009107;28;20077;-71
2021/03/22 06:47:01;;;;;;;32.97;6.72;;;;;;;1.83;74.06;96825.81;5011767;28;20137;-71
2021/03/22 06:49:27;;;;;;;28.73;8.60;;;;;;;1.94;74.06;96837.88;5009976;28;20029;-73
2021/03/22 06:52:06;;;;;;;26.58;6.22;;;;;;;1.81;75.35;96843.06;5013185;28;20037;-72
2021/03/22 06:54:48;;;;;;;30.58;5.38;;;;;;;2.06;72.71;96833.63;4994695;28;20063;-71
2021/03/22 06:57:26;;;;;;;26.73;6.05;;;;;;;1.72;74.05;96830.91;5011438;28;20152;-71
2021/03/22 07:00:13;;;;;;;;;;;;;;;1.63;73.50;96834.97;5009043;28;20035;-72
2021/03/22 07:02:43;;;;;;;29.75;5.85;;;;;;;1.98;73.14;96841.88;5007714;28;19936;-68
2021/03/22 07:05:38;;;;;;;26.75;5.25;;;;;;;2.06;71.78;96841.31;5008700;28;20057;-71
2021/03/22 07:08:13;;;;;;;35.13;6.70;;;;;;;1.97;71.98;96849.69;4987897;28;20089;-71
2021/03/22 07:10:55;;;;;;;27.67;8.18;;;;;;;2.24;73.24;96854.56;5007535;28;20054;-73
2021/03/22 07:13:27;;;;;;;26.15;5.53;;;;;;;1.66;72.07;96840.78;5009212;28;20124;-70
2021/03/22 07:16:13;;;;;;;28.33;5.93;;;;;;;2.12;72.74;96858.03;5010138;28;20105;-71
2021/03/22 07:18:39;;;;;;;31.38;5.57;;;;;;;2.20;72.20;96860.84;4997062;28;20038;-70
2021/03/22 07:21:14;;;;;;;32.80;6.47;;;;;;;1.78;71.89;96868.97;5013075;28;20053;-71
2021/03/22 07:23:47;;;;;;;28.25;5.55;;;;;;;2.39;71.10;96868.03;4999910;28;20081;-71
2021/03/22 07:26:31;;;;;;;29.60;5.60;;;;;;;2.31;71.52;96872.91;4982154;28;20049;-71
2021/03/22 07:29:31;;;;;;;26.25;5.65;;;;;;;2.23;72.80;96873.47;5008234;28;20088;-70
2021/03/22 07:32:25;;;;;;;27.23;5.93;;;;;;;2.34;72.90;96870.13;5012662;28;20098;-72
2021/03/22 07:35:10;;;;;;;24.95;5.50;;;;;;;2.43;72.39;96877.16;4950184;28;20054;-72
2021/03/22 07:37:58;;;;;;;31.50;7.28;;;;;;;2.58;72.09;96859.78;4993859;28;20046;-70
2021/03/22 07:40:52;;;;;;;36.50;6.63;;;;;;;2.65;70.76;96877.22;5011166;28;20057;-71
2021/03/22 07:43:39;;;;;;;30.73;6.47;;;;;;;2.01;74.29;96887.03;5009883;28;20130;-71
2021/03/22 07:46:45;;;;;;;30.42;5.55;;;;;;;2.40;74.44;96885.09;5005239;28;20487;-71
2021/03/22 07:49:41;;;;;;;25.27;8.38;;;;;;;2.28;74.28;96884.22;4996320;28;20050;-71
2021/03/22 07:52:39;;;;;;;32.35;7.05;;;;;;;2.07;74.93;96890.91;5008837;28;20117;-71
2021/03/22 07:55:35;;;;;;;38.75;5.90;;;;;;;2.31;74.47;96894.28;5009648;28;20487;-71
2021/03/22 07:58:14;;;;;;;34.53;7.88;;;;;;;2.24;76.46;96898.22;5008602;28;20425;-71
2021/03/22 08:01:04;;;;;;;38.50;10.18;;;;;;;2.38;75.23;96894.66;5006645;28;20117;-71
2021/03/22 08:03:51;;;;;;;71.47;22.05;;;;;;;2.84;74.96;96898.97;4992110;28;20038;-71
2021/03/22 08:06:24;;;;;;;57.08;20.67;;;;;;;3.40;71.64;96885.31;5009035;28;20076;-71
2021/03/22 08:09:09;;;;;;;26.20;5.78;;;;;;;3.36;71.38;96899.34;4993402;28;20045;-71
2021/03/22 08:11:50;;;;;;;36.10;10.27;;;;;;;3.87;69.85;96897.06;5008825;28;20560;-71
2021/03/22 08:14:16;;;;;;;45.42;7.60;;;;;;;4.70;67.30;96897.28;4994394;28;20058;-70
2021/03/22 08:17:07;;;;;;;23.30;5.07;;;;;;;4.15;66.76;96904.31;4994689;28;20129;-69
2021/03/22 08:19:56;;;;;;;35.13;6.80;;;;;;;5.40;65.04;96900.09;5010208;28;20368;-73
2021/03/22 08:22:41;;;;;;;;;;;;;;;5.50;66.22;96904.34;5011294;28;20083;-70
2021/03/22 08:25:27;;;;;;;37.08;8.27;;;;;;;5.00;62.27;96909.41;5008655;28;19947;-70
2021/03/22 08:28:03;;;;;;;36.88;8.95;;;;;;;5.53;62.78;96902.44;5014667;28;20056;-71
2021/03/22 08:30:31;;;;;;;23.63;5.50;;;;;;;4.95;63.93;96906.38;5009546;28;20067;-70
2021/03/22 08:33:01;;;;;;;25.95;4.97;;;;;;;5.83;60.47;96914.47;5010530;28;20035;-69
2021/03/22 08:35:43;;;;;;;25.48;5.32;;;;;;;5.54;61.07;96911.81;5012636;28;20046;-71
2021/03/22 08:38:15;;;;;;;34.45;9.23;;;;;;;5.82;62.18;96920.56;4993166;28;20046;-72
2021/03/22 08:40:44;;;;;;;44.40;11.45;;;;;;;6.42;61.53;96920.56;5011459;28;20077;-72
2021/03/22 08:43:20;;;;;;;29.15;5.53;;;;;;;6.48;58.84;96922.59;4994461;28;20057;-69
2021/03/22 08:45:54;;;;;;;82.70;23.52;;;;;;;6.34;57.96;96925.59;5009484;28;20053;-68
2021/03/22 08:48:26;;;;;;;30.25;7.35;;;;;;;6.56;57.43;96930.50;5010565;28;20076;-71
2021/03/22 08:50:54;;;;;;;25.17;5.15;;;;;;;6.63;59.06;96933.34;5012706;28;20046;-71
2021/03/22 08:53:24;;;;;;;26.60;6.28;;;;;;;6.71;56.80;96930.91;5011325;28;20038;-74
2021/03/22 08:56:01;;;;;;;54.40;19.63;;;;;;;8.06;55.47;96920.97;4994483;28;20057;-71
2021/03/22 08:58:38;;;;;;;18.52;5.07;;;;;;;8.22;55.31;96925.50;4991238;28;20042;-71
2021/03/22 09:01:26;;;;;;;20.90;6.05;;;;;;;9.07;53.78;96938.88;5005599;28;20514;-71
2021/03/22 09:03:54;;;;;;;25.77;5.68;;;;;;;9.16;50.10;96937.97;5007419;28;20556;-71
2021/03/22 09:06:27;;;;;;;22.80;6.18;;;;;;;10.70;48.26;96939.63;5009258;28;20152;-70
2021/03/22 09:08:59;;;;;;;24.20;6.53;;;;;;;8.99;52.16;96945.81;5008728;28;20041;-72
2021/03/22 09:11:29;;;;;;;24.23;6.28;;;;;;;10.64;48.94;96948.09;4992977;28;20057;-71
2021/03/22 09:14:29;;;;;;;22.05;5.68;;;;;;;8.30;52.18;96958.50;5004599;28;20049;-72
2021/03/22 09:16:57;;;;;;;20.40;5.72;;;;;;;9.25;49.93;96958.78;5000801;28;20053;-72
2021/03/22 09:19:39;;;;;;;24.08;5.93;;;;;;;9.80;49.74;96953.25;4986902;28;20042;-72
2021/03/22 09:22:19;;;;;;;24.77;5.85;;;;;;;11.25;48.41;96946.75;4999846;28;20501;-72
2021/03/22 09:24:48;;;;;;;20.67;5.00;;;;;;;9.90;46.99;96948.72;4999541;28;20144;-71
2021/03/22 09:27:18;;;;;;;22.27;5.55;;;;;;;12.20;43.93;96943.31;4970816;28;20061;-72
2021/03/22 09:30:32;;;;;;;24.85;5.75;;;;;;;13.32;43.68;96948.03;5005190;28;20129;-72
2021/03/22 09:32:59;;;;;;;21.30;5.32;;;;;;;11.77;43.48;96945.47;4991256;28;20042;-72
2021/03/22 09:35:29;;;;;;;17.27;4.72;;;;;;;11.18;43.28;96953.59;4990725;28;20623;-72
2021/03/22 09:38:03;;;;;;;15.93;4.60;;;;;;;17.96;32.85;96936.94;5006975;28;20052;-72
2021/03/22 09:40:29;;;;;;;19.73;5.18;;;;;;;11.33;44.51;96936.31;5005547;28;20045;-72
2021/03/22 09:43:12;;;;;;;21.70;5.45;;;;;;;14.00;42.01;96931.22;5007439;28;20064;-72
2021/03/22 09:45:54;;;;;;;19.52;5.30;;;;;;;18.71;32.15;96944.22;4988204;28;20076;-72
2021/03/22 09:48:22;;;;;;;18.38;5.40;;;;;;;17.33;34.66;96944.56;5007313;28;20577;-72
2021/03/22 09:51:11;;;;;;;22.00;7.38;;;;;;;14.67;38.90;96950.31;4993515;28;20042;-73
2021/03/22 09:53:56;;;;;;;20.92;6.47;;;;;;;20.43;30.74;96954.13;4993263;28;20049;-73
2021/03/22 09:56:29;;;;;;;20.63;5.40;;;;;;;11.29;40.15;96949.84;4991379;28;20506;-71
2021/03/22 09:59:32;;;;;;;22.23;5.75;;;;;;;10.94;42.90;96963.06;5003181;28;20935;-71
2021/03/22 10:02:19;;;;;;;20.65;5.55;;;;;;;9.32;44.75;96960.63;5004950;28;20048;-73
2021/03/22 10:05:08;;;;;;;18.20;5.10;;;;;;;17.57;31.84;96946.56;4989295;28;20046;-72
2021/03/22 10:07:38;;;;;;;19.33;5.57;;;;;;;14.01;34.03;96951.19;5004643;28;20100;-71
2021/03/22 10:10:27;;;;;;;24.33;7.32;;;;;;;11.06;43.91;96945.31;5004603;28;20046;-71
2021/03/22 10:12:56;;;;;;;;;;;;;;;14.03;39.20;96945.75;5005279;28;20714;-71
2021/03/22 10:15:30;;;;;;;18.88;4.80;;;;;;;13.83;41.01;96955.97;5005580;28;19976;-71
2021/03/22 10:17:59;;;;;;;18.83;5.32;;;;;;;22.44;24.28;96964.81;4990075;28;20084;-72
2021/03/22 10:20:40;;;;;;;18.20;5.00;;;;;;;15.79;34.66;96959.19;5002669;28;20478;-72
2021/03/22 10:23:21;;;;;;;17.75;4.30;;;;;;;10.97;42.70;96956.72;5011130;28;20046;-72
2021/03/22 10:25:49;;;;;;;14.38;4.53;;;;;;;9.43;46.52;96959.56;5011673;28;20088;-71
2021/03/22 10:28:23;;;;;;;23.65;8.48;;;;;;;11.24;44.62;96965.97;5010367;28;20128;-70
2021/03/22 10:31:09;;;;;;;18.73;5.43;;;;;;;19.41;27.44;96959.13;4995107;28;20498;-71
2021/03/22 10:33:44;;;;;;;16.27;5.22;;;;;;;21.18;26.01;96952.84;5012704;28;20068;-73
2021/03/22 10:36:24;;;;;;;11.80;4.28;;;;;;;23.49;23.23;96949.28;5008312;28;20053;-73
2021/03/22 10:38:52;;;;;;;15.93;7.72;;;;;;;23.09;21.83;96944.97;5011638;28;20558;-72
2021/03/22 10:41:27;;;;;;;19.42;6.95;;;;;;;15.27;30.41;96941.09;5006553;28;20044;-72
2021/03/22 10:44:29;;;;;;;15.52;4.95;;;;;;;9.88;41.61;96944.63;5012175;28;20092;-71
2021/03/22 10:47:04;;;;;;;19.50;4.78;;;;;;;11.49;39.73;96938.03;4988189;28;20050;-72
2021/03/22 10:49:31;;;;;;;18.73;5.32;;;;;;;12.37;37.44;96939.63;5005391;28;20038;-71
2021/03/22 10:52:01;;;;;;;15.33;5.47;;;;;;;19.68;26.86;96935.91;5006792;28;20065;-71
2021/03/22 10:54:43;;;;;;;19.17;6.75;;;;;;;23.03;25.18;96932.66;5008144;28;20283;-72
2021/03/22 10:57:20;;;;;;;16.98;4.32;;;;;;;14.03;34.34;96936.09;5005153;28;20104;-70
2021/03/22 10:59:52;;;;;;;18.75;5.82;;;;;;;16.41;30.38;96931.16;4995366;28;20133;-72
2021/03/22 11:02:24;;;;;;;17.48;5.15;;;;;;;13.10;34.34;96939.22;5008123;28;20489;-73
2021/03/22 11:04:52;;;;;;;26.33;7.82;;;;;;;13.08;35.44;96941.19;4994280;28;20042;-70
2021/03/22 11:07:24;;;;;;;17.92;4.65;;;;;;;10.48;40.13;96931.50;5011427;28;20136;-71
2021/03/22 11:09:56;;;;;;;20.42;6.75;;;;;;;10.93;40.63;96951.00;5009528;28;20042;-71
2021/03/22 11:12:25;;;;;;;20.30;4.20;;;;;;;9.32;44.09;96941.63;5007581;28;20442;-69
2021/03/22 11:14:58;;;;;;;19.95;4.45;;;;;;;7.53;46.77;96944.97;4993114;28;20494;-70
2021/03/22 11:17:26;;;;;;;16.77;4.43;;;;;;;6.92;50.65;96951.41;5005784;28;20119;-67
2021/03/22 11:19:55;;;;;;;16.30;4.25;;;;;;;6.52;53.41;96944.66;5003506;28;20041;-70
2021/03/22 11:22:46;;;;;;;14.13;3.05;;;;;;;6.01;52.91;96956.00;5008434;28;20049;-72
2021/03/22 11:25:31;;;;;;;15.32;3.30;;;;;;;5.82;49.76;96960.16;5008994;28;20088;-68
2021/03/22 11:28:01;;;;;;;12.00;3.65;;;;;;;6.09;50.62;96961.34;5007413;28;20246;-71
2021/03/22 11:30:57;;;;;;;9.93;2.33;;;;;;;5.84;49.17;96962.59;5005744;28;20045;-71
2021/03/22 11:33:41;;;;;;;12.95;3.22;;;;;;;5.39;52.14;96966.38;5006541;28;20058;-71
2021/03/22 11:36:13;;;;;;;12.10;3.75;;;;;;;5.90;50.00;96957.75;5002799;28;20056;-70
2021/03/22 11:38:51;;;;;;;14.82;3.58;;;;;;;5.32;50.24;96954.94;5009596;28;20049;-69
2021/03/22 11:41:36;;;;;;;41.92;14.65;;;;;;;5.61;51.56;96960.22;5004675;28;20872;-70
2021/03/22 11:44:04;;;;;;;15.02;3.25;;;;;;;6.06;52.79;96959.03;4990259;28;20045;-70
2021/03/22 11:46:32;;;;;;;19.88;6.07;;;;;;;6.39;52.11;96960.44;5003895;28;20050;-70
2021/03/22 11:49:00;;;;;;;19.65;3.90;;;;;;;5.96;51.70;96955.59;5009200;28;20061;-71
2021/03/22 11:51:29;;;;;;;19.08;4.80;;;;;;;6.16;51.36;96949.53;5005607;28;20038;-70
2021/03/22 11:54:11;;;;;;;18.58;4.78;;;;;;;6.01;51.55;96950.84;5000273;28;20081;-71
2021/03/22 11:56:39;;;;;;;22.10;5.38;;;;;;;6.73;49.43;96953.09;5006058;28;20046;-70
2021/03/22 11:59:21;;;;;;;24.35;5.95;;;;;;;6.24;52.32;96949.66;5002733;28;20401;-72
2021/03/22 12:02:02;;;;;;;20.38;4.45;;;;;;;7.84;49.67;96952.50;5008740;28;20041;-74
2021/03/22 12:04:31;;;;;;;17.17;5.88;;;;;;;7.03;51.83;96958.22;5006698;28;20164;-73
2021/03/22 12:07:04;;;;;;;25.67;6.85;;;;;;;6.30;55.45;96959.44;5003631;28;20714;-71
2021/03/22 12:09:31;;;;;;;22.98;6.68;;;;;;;5.87;58.97;96970.91;4990020;28;20066;-72